Belle Center, Ohio
Current Conditions -  °F | °C
As of 9:50 PM on Monday 22 Dec 2014 (Local Time) from KEDJ Reporting Station
Clear Clear  
Wind Chill: 39°   Ceiling: Unl
Heat Index: 45°   Visibility: 10mi
Dew Point: 36°   Wind: 12mph
Humidity: 71%   Direction: 120°ESE
Pressure: 29.78"   Gusts: 18mph
Location:  40.51°N, 83.75°W
Report Text: KEDJ 230250Z AUTO 12010G16KT 10SM CLR 07/02 A2978 RMK AO1
Loading
Personal Weather Stations






























Interactive Weather Map New forecast layout! Learn more

10-Day Weather Forecast

Advertisements
Track Severe Weather on mobile